sensor_id;sensor_type;location;lat;lon;timestamp;pressure;altitude;pressure_sealevel;temperature;humidity
80248;BME280;69560;52.206;21.018;2023-05-10T00:01:41;100829.53;;;11.02;37.49
80248;BME280;69560;52.206;21.018;2023-05-10T00:04:08;100828.78;;;10.98;37.81
80248;BME280;69560;52.206;21.018;2023-05-10T00:06:34;100826.00;;;10.95;37.45
80248;BME280;69560;52.206;21.018;2023-05-10T00:09:01;100824.95;;;10.92;37.75
80248;BME280;69560;52.206;21.018;2023-05-10T00:11:29;100826.09;;;10.89;37.72
80248;BME280;69560;52.206;21.018;2023-05-10T00:13:55;100820.52;;;10.86;37.73
80248;BME280;69560;52.206;21.018;2023-05-10T00:16:22;100817.30;;;10.84;37.82
80248;BME280;69560;52.206;21.018;2023-05-10T00:18:49;100815.77;;;10.83;37.78
80248;BME280;69560;52.206;21.018;2023-05-10T00:21:15;100813.83;;;10.79;37.82
80248;BME280;69560;52.206;21.018;2023-05-10T00:23:42;100811.05;;;10.76;37.92
80248;BME280;69560;52.206;21.018;2023-05-10T00:26:09;100810.53;;;10.74;37.77
80248;BME280;69560;52.206;21.018;2023-05-10T00:28:35;100808.88;;;10.72;38.03
80248;BME280;69560;52.206;21.018;2023-05-10T00:31:02;100804.45;;;10.69;37.98
80248;BME280;69560;52.206;21.018;2023-05-10T00:33:29;100807.48;;;10.67;38.10
80248;BME280;69560;52.206;21.018;2023-05-10T00:35:56;100799.95;;;10.64;38.04
80248;BME280;69560;52.206;21.018;2023-05-10T00:38:22;100802.33;;;10.61;38.14
80248;BME280;69560;52.206;21.018;2023-05-10T00:40:49;100800.15;;;10.57;38.12
80248;BME280;69560;52.206;21.018;2023-05-10T00:43:16;100798.62;;;10.53;38.17
80248;BME280;69560;52.206;21.018;2023-05-10T00:45:43;100800.48;;;10.52;38.31
80248;BME280;69560;52.206;21.018;2023-05-10T00:48:10;100796.16;;;10.50;38.24
80248;BME280;69560;52.206;21.018;2023-05-10T00:50:37;100796.83;;;10.46;38.23
80248;BME280;69560;52.206;21.018;2023-05-10T00:53:04;100793.79;;;10.42;38.21
80248;BME280;69560;52.206;21.018;2023-05-10T00:55:31;100794.98;;;10.40;38.32
80248;BME280;69560;52.206;21.018;2023-05-10T00:57:58;100793.80;;;10.37;38.39
80248;BME280;69560;52.206;21.018;2023-05-10T01:00:25;100796.91;;;10.35;38.24
80248;BME280;69560;52.206;21.018;2023-05-10T01:02:53;100795.21;;;10.33;38.19
80248;BME280;69560;52.206;21.018;2023-05-10T01:05:20;100793.52;;;10.33;38.66
80248;BME280;69560;52.206;21.018;2023-05-10T01:07:46;100790.27;;;10.30;38.40
80248;BME280;69560;52.206;21.018;2023-05-10T01:10:14;100787.14;;;10.28;38.53
80248;BME280;69560;52.206;21.018;2023-05-10T01:12:42;100789.13;;;10.26;38.52
80248;BME280;69560;52.206;21.018;2023-05-10T01:15:11;100781.64;;;10.24;38.64
80248;BME280;69560;52.206;21.018;2023-05-10T01:17:39;100782.48;;;10.23;38.76
80248;BME280;69560;52.206;21.018;2023-05-10T01:20:15;100781.39;;;10.22;38.55
80248;BME280;69560;52.206;21.018;2023-05-10T01:25:37;100782.19;;;10.19;38.69
80248;BME280;69560;52.206;21.018;2023-05-10T01:28:25;100779.52;;;10.17;38.66
80248;BME280;69560;52.206;21.018;2023-05-10T01:34:02;100778.16;;;10.14;38.57
80248;BME280;69560;52.206;21.018;2023-05-10T01:39:16;100783.06;;;10.11;38.96
80248;BME280;69560;52.206;21.018;2023-05-10T01:41:55;100778.18;;;10.10;38.92
80248;BME280;69560;52.206;21.018;2023-05-10T01:44:38;100781.20;;;10.09;38.88
80248;BME280;69560;52.206;21.018;2023-05-10T01:49:45;100775.24;;;10.03;38.75
80248;BME280;69560;52.206;21.018;2023-05-10T01:52:17;100772.80;;;10.00;39.04
80248;BME280;69560;52.206;21.018;2023-05-10T01:55:02;100766.48;;;9.98;38.75
80248;BME280;69560;52.206;21.018;2023-05-10T01:57:35;100765.96;;;9.96;38.85
80248;BME280;69560;52.206;21.018;2023-05-10T02:00:03;100764.08;;;9.94;38.64
80248;BME280;69560;52.206;21.018;2023-05-10T02:02:35;100764.80;;;9.94;38.84
80248;BME280;69560;52.206;21.018;2023-05-10T02:05:12;100761.13;;;9.94;39.01
80248;BME280;69560;52.206;21.018;2023-05-10T02:07:42;100759.13;;;9.93;38.95
80248;BME280;69560;52.206;21.018;2023-05-10T02:10:11;100758.66;;;9.91;39.17
80248;BME280;69560;52.206;21.018;2023-05-10T02:12:43;100757.09;;;9.89;38.87
80248;BME280;69560;52.206;21.018;2023-05-10T02:15:13;100759.42;;;9.87;38.79
80248;BME280;69560;52.206;21.018;2023-05-10T02:17:42;100756.39;;;9.86;39.04
80248;BME280;69560;52.206;21.018;2023-05-10T02:20:10;100756.20;;;9.85;38.93
80248;BME280;69560;52.206;21.018;2023-05-10T02:22:41;100756.48;;;9.84;39.11
80248;BME280;69560;52.206;21.018;2023-05-10T02:25:11;100754.83;;;9.82;38.92
80248;BME280;69560;52.206;21.018;2023-05-10T02:27:41;100752.39;;;9.79;38.96
80248;BME280;69560;52.206;21.018;2023-05-10T02:30:10;100749.31;;;9.78;38.93
80248;BME280;69560;52.206;21.018;2023-05-10T02:32:37;100752.45;;;9.76;39.07
80248;BME280;69560;52.206;21.018;2023-05-10T02:35:05;100750.98;;;9.75;39.23
80248;BME280;69560;52.206;21.018;2023-05-10T02:37:34;100754.16;;;9.74;39.11
80248;BME280;69560;52.206;21.018;2023-05-10T02:40:02;100758.02;;;9.72;39.33
80248;BME280;69560;52.206;21.018;2023-05-10T02:42:33;100754.64;;;9.71;39.40
80248;BME280;69560;52.206;21.018;2023-05-10T02:45:03;100752.54;;;9.69;39.51
80248;BME280;69560;52.206;21.018;2023-05-10T02:47:34;100753.73;;;9.67;39.23
80248;BME280;69560;52.206;21.018;2023-05-10T02:50:01;100752.81;;;9.66;39.43
80248;BME280;69560;52.206;21.018;2023-05-10T02:52:39;100755.50;;;9.65;39.31
80248;BME280;69560;52.206;21.018;2023-05-10T02:55:09;100755.95;;;9.64;39.71
80248;BME280;69560;52.206;21.018;2023-05-10T02:57:41;100759.37;;;9.62;39.57
80248;BME280;69560;52.206;21.018;2023-05-10T03:00:12;100761.60;;;9.60;39.65
80248;BME280;69560;52.206;21.018;2023-05-10T03:02:39;100762.65;;;9.58;39.78
80248;BME280;69560;52.206;21.018;2023-05-10T03:05:06;100760.39;;;9.57;39.62
80248;BME280;69560;52.206;21.018;2023-05-10T03:07:33;100763.99;;;9.55;40.02
80248;BME280;69560;52.206;21.018;2023-05-10T03:10:00;100762.29;;;9.54;39.81
80248;BME280;69560;52.206;21.018;2023-05-10T03:15:10;100760.67;;;9.53;39.80
80248;BME280;69560;52.206;21.018;2023-05-10T03:17:53;100762.94;;;9.52;40.20
80248;BME280;69560;52.206;21.018;2023-05-10T03:20:28;100764.23;;;9.50;40.38
80248;BME280;69560;52.206;21.018;2023-05-10T03:23:02;100764.17;;;9.49;40.18
80248;BME280;69560;52.206;21.018;2023-05-10T03:25:31;100762.89;;;9.48;40.12
80248;BME280;69560;52.206;21.018;2023-05-10T03:28:01;100763.45;;;9.46;40.14
80248;BME280;69560;52.206;21.018;2023-05-10T03:30:29;100757.54;;;9.44;40.02
80248;BME280;69560;52.206;21.018;2023-05-10T03:32:56;100758.00;;;9.44;40.18
80248;BME280;69560;52.206;21.018;2023-05-10T03:35:23;100754.65;;;9.43;40.48
80248;BME280;69560;52.206;21.018;2023-05-10T03:37:50;100755.13;;;9.43;40.38
80248;BME280;69560;52.206;21.018;2023-05-10T03:40:17;100760.24;;;9.42;40.41
80248;BME280;69560;52.206;21.018;2023-05-10T03:42:43;100762.77;;;9.42;40.55
80248;BME280;69560;52.206;21.018;2023-05-10T03:45:10;100758.11;;;9.42;40.26
80248;BME280;69560;52.206;21.018;2023-05-10T03:47:37;100756.32;;;9.43;40.71
80248;BME280;69560;52.206;21.018;2023-05-10T03:50:04;100753.62;;;9.43;40.68
80248;BME280;69560;52.206;21.018;2023-05-10T03:52:33;100755.39;;;9.44;40.92
80248;BME280;69560;52.206;21.018;2023-05-10T03:55:00;100752.80;;;9.44;40.54
80248;BME280;69560;52.206;21.018;2023-05-10T03:57:26;100752.46;;;9.46;40.69
80248;BME280;69560;52.206;21.018;2023-05-10T03:59:53;100753.70;;;9.48;40.86
80248;BME280;69560;52.206;21.018;2023-05-10T04:02:20;100755.05;;;9.50;40.81
80248;BME280;69560;52.206;21.018;2023-05-10T04:04:46;100752.84;;;9.51;40.62
80248;BME280;69560;52.206;21.018;2023-05-10T04:07:13;100754.42;;;9.50;40.72
80248;BME280;69560;52.206;21.018;2023-05-10T04:09:40;100753.38;;;9.50;40.47
80248;BME280;69560;52.206;21.018;2023-05-10T04:12:07;100755.52;;;9.53;40.87
80248;BME280;69560;52.206;21.018;2023-05-10T04:14:34;100754.27;;;9.56;40.84
80248;BME280;69560;52.206;21.018;2023-05-10T04:17:00;100758.73;;;9.59;40.67
80248;BME280;69560;52.206;21.018;2023-05-10T04:19:30;100756.21;;;9.59;40.57
80248;BME280;69560;52.206;21.018;2023-05-10T04:21:58;100758.91;;;9.63;40.76
80248;BME280;69560;52.206;21.018;2023-05-10T04:24:25;100761.08;;;9.67;40.55
80248;BME280;69560;52.206;21.018;2023-05-10T04:26:51;100762.98;;;9.71;40.78
80248;BME280;69560;52.206;21.018;2023-05-10T04:29:18;100762.20;;;9.75;40.64
80248;BME280;69560;52.206;21.018;2023-05-10T04:31:45;100762.70;;;9.78;40.77
80248;BME280;69560;52.206;21.018;2023-05-10T04:34:11;100761.05;;;9.81;40.93
80248;BME280;69560;52.206;21.018;2023-05-10T04:36:38;100766.06;;;9.84;40.61
80248;BME280;69560;52.206;21.018;2023-05-10T04:39:05;100767.00;;;9.86;40.68
80248;BME280;69560;52.206;21.018;2023-05-10T04:41:32;100770.96;;;9.92;40.60
80248;BME280;69560;52.206;21.018;2023-05-10T04:43:58;100767.73;;;9.98;40.90
80248;BME280;69560;52.206;21.018;2023-05-10T04:46:25;100766.84;;;10.05;40.54
80248;BME280;69560;52.206;21.018;2023-05-10T04:48:51;100767.25;;;10.10;40.66
80248;BME280;69560;52.206;21.018;2023-05-10T04:51:18;100769.39;;;10.18;40.66
80248;BME280;69560;52.206;21.018;2023-05-10T04:53:45;100770.91;;;10.26;40.68
80248;BME280;69560;52.206;21.018;2023-05-10T04:56:12;100771.77;;;10.34;40.75
80248;BME280;69560;52.206;21.018;2023-05-10T04:58:39;100771.39;;;10.40;40.53
80248;BME280;69560;52.206;21.018;2023-05-10T05:01:06;100770.24;;;10.47;40.47
80248;BME280;69560;52.206;21.018;2023-05-10T05:03:34;100769.08;;;10.57;40.19
80248;BME280;69560;52.206;21.018;2023-05-10T05:06:00;100767.86;;;10.65;40.54
80248;BME280;69560;52.206;21.018;2023-05-10T05:08:27;100768.34;;;10.71;40.39
80248;BME280;69560;52.206;21.018;2023-05-10T05:10:54;100767.34;;;10.78;40.05
80248;BME280;69560;52.206;21.018;2023-05-10T05:13:21;100767.20;;;10.87;40.16
80248;BME280;69560;52.206;21.018;2023-05-10T05:15:48;100769.87;;;10.98;40.02
80248;BME280;69560;52.206;21.018;2023-05-10T05:18:14;100767.52;;;11.08;39.85
80248;BME280;69560;52.206;21.018;2023-05-10T05:20:41;100766.95;;;11.17;39.81
80248;BME280;69560;52.206;21.018;2023-05-10T05:23:08;100767.68;;;11.28;39.85
80248;BME280;69560;52.206;21.018;2023-05-10T05:25:34;100766.48;;;11.37;39.74
80248;BME280;69560;52.206;21.018;2023-05-10T05:28:01;100766.19;;;11.48;39.62
80248;BME280;69560;52.206;21.018;2023-05-10T05:30:28;100767.75;;;11.57;39.51
80248;BME280;69560;52.206;21.018;2023-05-10T05:32:55;100765.77;;;11.66;39.37
80248;BME280;69560;52.206;21.018;2023-05-10T05:35:21;100763.58;;;11.74;39.28
80248;BME280;69560;52.206;21.018;2023-05-10T05:37:48;100767.42;;;11.83;39.22
80248;BME280;69560;52.206;21.018;2023-05-10T05:40:15;100763.91;;;11.89;39.02
80248;BME280;69560;52.206;21.018;2023-05-10T05:42:41;100762.92;;;11.95;38.83
80248;BME280;69560;52.206;21.018;2023-05-10T05:45:08;100767.52;;;12.02;38.97
80248;BME280;69560;52.206;21.018;2023-05-10T05:47:39;100769.44;;;12.13;38.96
80248;BME280;69560;52.206;21.018;2023-05-10T05:50:06;100771.30;;;12.19;38.65
80248;BME280;69560;52.206;21.018;2023-05-10T05:52:33;100772.39;;;12.22;38.49
80248;BME280;69560;52.206;21.018;2023-05-10T05:55:02;100770.11;;;12.22;38.38
80248;BME280;69560;52.206;21.018;2023-05-10T05:57:29;100774.52;;;12.25;38.45
80248;BME280;69560;52.206;21.018;2023-05-10T05:59:56;100772.67;;;12.31;38.35
80248;BME280;69560;52.206;21.018;2023-05-10T06:02:23;100776.19;;;12.40;38.44
80248;BME280;69560;52.206;21.018;2023-05-10T06:04:50;100775.64;;;12.44;38.23
80248;BME280;69560;52.206;21.018;2023-05-10T06:07:17;100781.25;;;12.46;38.15
80248;BME280;69560;52.206;21.018;2023-05-10T06:09:43;100773.86;;;12.51;37.98
80248;BME280;69560;52.206;21.018;2023-05-10T06:12:10;100776.70;;;12.57;38.11
80248;BME280;69560;52.206;21.018;2023-05-10T06:14:38;100777.92;;;12.63;37.95
80248;BME280;69560;52.206;21.018;2023-05-10T06:17:04;100780.07;;;12.71;38.21
80248;BME280;69560;52.206;21.018;2023-05-10T06:19:31;100777.81;;;12.82;38.21
80248;BME280;69560;52.206;21.018;2023-05-10T06:21:58;100777.70;;;12.93;38.17
80248;BME280;69560;52.206;21.018;2023-05-10T06:24:25;100783.32;;;13.04;38.09
80248;BME280;69560;52.206;21.018;2023-05-10T06:26:51;100777.38;;;13.13;38.08
80248;BME280;69560;52.206;21.018;2023-05-10T06:29:18;100770.59;;;13.26;38.18
80248;BME280;69560;52.206;21.018;2023-05-10T06:31:45;100774.58;;;13.37;38.07
80248;BME280;69560;52.206;21.018;2023-05-10T06:34:11;100771.45;;;13.44;37.68
80248;BME280;69560;52.206;21.018;2023-05-10T06:36:38;100771.40;;;13.52;37.93
80248;BME280;69560;52.206;21.018;2023-05-10T06:39:05;100773.23;;;13.62;37.68
80248;BME280;69560;52.206;21.018;2023-05-10T06:41:32;100772.00;;;13.70;37.49
80248;BME280;69560;52.206;21.018;2023-05-10T06:43:59;100775.36;;;13.77;37.27
80248;BME280;69560;52.206;21.018;2023-05-10T06:46:26;100772.95;;;13.85;37.38
80248;BME280;69560;52.206;21.018;2023-05-10T06:48:52;100778.34;;;13.95;37.33
80248;BME280;69560;52.206;21.018;2023-05-10T06:51:19;100772.36;;;14.01;37.00
80248;BME280;69560;52.206;21.018;2023-05-10T06:53:47;100768.58;;;14.10;37.22
80248;BME280;69560;52.206;21.018;2023-05-10T06:56:14;100772.07;;;14.21;37.04
80248;BME280;69560;52.206;21.018;2023-05-10T06:58:40;100770.94;;;14.31;36.98
80248;BME280;69560;52.206;21.018;2023-05-10T07:01:07;100766.92;;;14.40;36.44
80248;BME280;69560;52.206;21.018;2023-05-10T07:03:33;100766.21;;;14.48;36.18
80248;BME280;69560;52.206;21.018;2023-05-10T07:06:03;100769.66;;;14.56;36.21
80248;BME280;69560;52.206;21.018;2023-05-10T07:08:31;100767.63;;;14.66;36.06
80248;BME280;69560;52.206;21.018;2023-05-10T07:11:05;100766.55;;;14.78;35.97
80248;BME280;69560;52.206;21.018;2023-05-10T07:13:34;100769.77;;;14.90;35.74
80248;BME280;69560;52.206;21.018;2023-05-10T07:16:02;100766.02;;;14.97;35.47
80248;BME280;69560;52.206;21.018;2023-05-10T07:18:29;100764.48;;;15.03;35.12
80248;BME280;69560;52.206;21.018;2023-05-10T07:20:56;100763.55;;;15.04;34.77
80248;BME280;69560;52.206;21.018;2023-05-10T07:23:23;100758.23;;;15.10;34.74
80248;BME280;69560;52.206;21.018;2023-05-10T07:25:50;100760.32;;;15.20;34.57
80248;BME280;69560;52.206;21.018;2023-05-10T07:28:21;100757.45;;;15.28;34.28
80248;BME280;69560;52.206;21.018;2023-05-10T07:30:48;100760.73;;;15.38;34.18
80248;BME280;69560;52.206;21.018;2023-05-10T07:33:14;100757.80;;;15.50;34.05
80248;BME280;69560;52.206;21.018;2023-05-10T07:35:42;100756.08;;;15.65;33.99
80248;BME280;69560;52.206;21.018;2023-05-10T07:38:09;100755.45;;;15.80;33.45
80248;BME280;69560;52.206;21.018;2023-05-10T07:40:37;100761.04;;;15.92;33.12
80248;BME280;69560;52.206;21.018;2023-05-10T07:43:04;100775.88;;;16.01;32.88
80248;BME280;69560;52.206;21.018;2023-05-10T07:45:31;100763.21;;;16.08;32.23
80248;BME280;69560;52.206;21.018;2023-05-10T07:47:57;100768.84;;;16.15;31.94
80248;BME280;69560;52.206;21.018;2023-05-10T07:50:24;100756.88;;;16.22;31.72
80248;BME280;69560;52.206;21.018;2023-05-10T07:52:51;100758.36;;;16.32;31.72
80248;BME280;69560;52.206;21.018;2023-05-10T07:55:18;100762.00;;;16.41;31.61
80248;BME280;69560;52.206;21.018;2023-05-10T07:57:45;100752.41;;;16.46;31.02
80248;BME280;69560;52.206;21.018;2023-05-10T08:00:13;100755.75;;;16.54;30.78
80248;BME280;69560;52.206;21.018;2023-05-10T08:02:40;100755.70;;;16.60;30.54
80248;BME280;69560;52.206;21.018;2023-05-10T08:05:07;100746.89;;;16.64;30.30
80248;BME280;69560;52.206;21.018;2023-05-10T08:07:34;100749.23;;;16.67;29.81
80248;BME280;69560;52.206;21.018;2023-05-10T08:10:01;100757.24;;;16.71;29.79
80248;BME280;69560;52.206;21.018;2023-05-10T08:12:28;100759.25;;;16.72;29.53
80248;BME280;69560;52.206;21.018;2023-05-10T08:14:54;100763.08;;;16.72;29.29
80248;BME280;69560;52.206;21.018;2023-05-10T08:17:21;100750.04;;;16.75;29.26
80248;BME280;69560;52.206;21.018;2023-05-10T08:19:48;100742.46;;;16.84;29.24
80248;BME280;69560;52.206;21.018;2023-05-10T08:22:14;100742.08;;;16.95;29.13
80248;BME280;69560;52.206;21.018;2023-05-10T08:24:41;100745.61;;;17.06;28.83
80248;BME280;69560;52.206;21.018;2023-05-10T08:27:08;100737.84;;;17.14;28.69
80248;BME280;69560;52.206;21.018;2023-05-10T08:29:35;100738.65;;;17.20;28.39
80248;BME280;69560;52.206;21.018;2023-05-10T08:32:01;100746.98;;;17.22;28.12
80248;BME280;69560;52.206;21.018;2023-05-10T08:34:28;100744.89;;;17.22;27.76
80248;BME280;69560;52.206;21.018;2023-05-10T08:36:54;100745.45;;;17.22;27.57
80248;BME280;69560;52.206;21.018;2023-05-10T08:39:21;100741.61;;;17.24;27.63
80248;BME280;69560;52.206;21.018;2023-05-10T08:41:48;100750.66;;;17.29;27.56
80248;BME280;69560;52.206;21.018;2023-05-10T08:44:17;100740.02;;;17.32;27.44
80248;BME280;69560;52.206;21.018;2023-05-10T08:46:46;100746.17;;;17.39;27.46
80248;BME280;69560;52.206;21.018;2023-05-10T08:49:16;100740.81;;;17.48;27.38
80248;BME280;69560;52.206;21.018;2023-05-10T08:51:50;100733.60;;;17.57;27.27
80248;BME280;69560;52.206;21.018;2023-05-10T08:54:18;100744.41;;;17.68;27.24
80248;BME280;69560;52.206;21.018;2023-05-10T08:56:45;100741.10;;;17.76;26.97
80248;BME280;69560;52.206;21.018;2023-05-10T08:59:12;100741.26;;;17.84;26.91
80248;BME280;69560;52.206;21.018;2023-05-10T09:01:41;100737.38;;;17.92;26.76
80248;BME280;69560;52.206;21.018;2023-05-10T09:04:09;100742.73;;;17.98;26.53
80248;BME280;69560;52.206;21.018;2023-05-10T09:06:36;100742.90;;;18.00;26.29
80248;BME280;69560;52.206;21.018;2023-05-10T09:09:03;100729.81;;;18.01;26.22
80248;BME280;69560;52.206;21.018;2023-05-10T09:11:30;100727.14;;;18.07;26.43
80248;BME280;69560;52.206;21.018;2023-05-10T09:13:57;100721.98;;;18.15;26.34
80248;BME280;69560;52.206;21.018;2023-05-10T09:16:24;100718.28;;;18.20;26.25
80248;BME280;69560;52.206;21.018;2023-05-10T09:18:51;100724.16;;;18.33;26.27
80248;BME280;69560;52.206;21.018;2023-05-10T09:21:19;100720.52;;;18.42;26.12
80248;BME280;69560;52.206;21.018;2023-05-10T09:23:47;100716.75;;;18.44;25.91
80248;BME280;69560;52.206;21.018;2023-05-10T09:26:16;100719.22;;;18.46;25.89
80248;BME280;69560;52.206;21.018;2023-05-10T09:28:56;100716.52;;;18.53;25.88
80248;BME280;69560;52.206;21.018;2023-05-10T09:31:23;100710.30;;;18.63;25.80
80248;BME280;69560;52.206;21.018;2023-05-10T09:33:51;100711.30;;;18.69;25.80
80248;BME280;69560;52.206;21.018;2023-05-10T09:36:18;100726.45;;;18.74;25.67
80248;BME280;69560;52.206;21.018;2023-05-10T09:38:49;100722.35;;;18.74;25.62
80248;BME280;69560;52.206;21.018;2023-05-10T09:43:44;100719.26;;;18.80;25.53
80248;BME280;69560;52.206;21.018;2023-05-10T09:46:11;100713.27;;;18.86;25.45
80248;BME280;69560;52.206;21.018;2023-05-10T09:48:47;100712.10;;;18.92;25.58
80248;BME280;69560;52.206;21.018;2023-05-10T09:51:21;100718.34;;;19.07;25.79
80248;BME280;69560;52.206;21.018;2023-05-10T09:53:48;100723.44;;;19.13;25.60
80248;BME280;69560;52.206;21.018;2023-05-10T09:56:35;100717.15;;;19.14;25.05
80248;BME280;69560;52.206;21.018;2023-05-10T09:59:02;100721.41;;;19.14;24.98
80248;BME280;69560;52.206;21.018;2023-05-10T10:01:29;100713.80;;;19.13;24.95
80248;BME280;69560;52.206;21.018;2023-05-10T10:03:57;100707.02;;;19.16;25.11
80248;BME280;69560;52.206;21.018;2023-05-10T10:06:24;100708.00;;;19.25;25.27
80248;BME280;69560;52.206;21.018;2023-05-10T10:08:52;100698.08;;;19.31;25.04
80248;BME280;69560;52.206;21.018;2023-05-10T10:11:19;100696.07;;;19.40;25.08
80248;BME280;69560;52.206;21.018;2023-05-10T10:13:46;100696.54;;;19.50;25.05
80248;BME280;69560;52.206;21.018;2023-05-10T10:16:13;100700.17;;;19.56;24.81
80248;BME280;69560;52.206;21.018;2023-05-10T10:18:40;100693.77;;;19.63;24.64
80248;BME280;69560;52.206;21.018;2023-05-10T10:21:08;100687.86;;;19.72;24.75
80248;BME280;69560;52.206;21.018;2023-05-10T10:23:35;100687.85;;;19.86;24.79
80248;BME280;69560;52.206;21.018;2023-05-10T10:26:03;100682.77;;;19.96;24.53
80248;BME280;69560;52.206;21.018;2023-05-10T10:31:17;100674.67;;;20.06;24.39
80248;BME280;69560;52.206;21.018;2023-05-10T10:33:56;100675.55;;;20.12;24.18
80248;BME280;69560;52.206;21.018;2023-05-10T10:36:25;100681.94;;;20.16;24.00
80248;BME280;69560;52.206;21.018;2023-05-10T10:38:59;100678.84;;;20.13;23.88
80248;BME280;69560;52.206;21.018;2023-05-10T10:41:34;100670.76;;;20.11;23.86
80248;BME280;69560;52.206;21.018;2023-05-10T10:49:43;100674.30;;;20.25;23.65
80248;BME280;69560;52.206;21.018;2023-05-10T10:52:27;100676.96;;;20.24;23.43
80248;BME280;69560;52.206;21.018;2023-05-10T10:55:17;100663.14;;;20.15;23.29
80248;BME280;69560;52.206;21.018;2023-05-10T10:57:51;100670.08;;;20.08;23.06
80248;BME280;69560;52.206;21.018;2023-05-10T11:00:25;100673.32;;;19.98;22.95
80248;BME280;69560;52.206;21.018;2023-05-10T11:03:06;100667.45;;;19.91;22.97
80248;BME280;69560;52.206;21.018;2023-05-10T11:05:38;100662.52;;;19.87;23.15
80248;BME280;69560;52.206;21.018;2023-05-10T11:10:39;100654.80;;;19.99;23.36
80248;BME280;69560;52.206;21.018;2023-05-10T11:13:08;100648.21;;;20.05;23.28
80248;BME280;69560;52.206;21.018;2023-05-10T11:15:40;100660.04;;;20.05;23.06
80248;BME280;69560;52.206;21.018;2023-05-10T11:18:17;100651.58;;;19.99;22.98
80248;BME280;69560;52.206;21.018;2023-05-10T11:20:50;100645.96;;;19.99;22.99
80248;BME280;69560;52.206;21.018;2023-05-10T11:23:17;100645.84;;;20.02;22.93
80248;BME280;69560;52.206;21.018;2023-05-10T11:25:45;100649.73;;;19.99;22.95
80248;BME280;69560;52.206;21.018;2023-05-10T11:28:12;100656.37;;;19.96;22.83
80248;BME280;69560;52.206;21.018;2023-05-10T11:30:40;100654.81;;;19.93;22.68
80248;BME280;69560;52.206;21.018;2023-05-10T11:33:08;100644.05;;;19.84;22.79
80248;BME280;69560;52.206;21.018;2023-05-10T11:35:39;100651.75;;;19.87;23.15
80248;BME280;69560;52.206;21.018;2023-05-10T11:38:09;100649.68;;;19.92;23.20
80248;BME280;69560;52.206;21.018;2023-05-10T11:40:37;100645.02;;;19.97;23.25
80248;BME280;69560;52.206;21.018;2023-05-10T11:43:05;100643.33;;;19.97;23.09
80248;BME280;69560;52.206;21.018;2023-05-10T11:45:35;100634.06;;;19.98;23.10
80248;BME280;69560;52.206;21.018;2023-05-10T11:48:02;100630.70;;;20.03;23.10
80248;BME280;69560;52.206;21.018;2023-05-10T11:50:29;100627.61;;;20.06;23.05
80248;BME280;69560;52.206;21.018;2023-05-10T11:52:56;100632.15;;;20.03;22.93
80248;BME280;69560;52.206;21.018;2023-05-10T11:55:23;100624.16;;;19.99;22.95
80248;BME280;69560;52.206;21.018;2023-05-10T11:57:54;100633.27;;;20.04;23.07
80248;BME280;69560;52.206;21.018;2023-05-10T12:00:21;100630.59;;;20.04;23.01
80248;BME280;69560;52.206;21.018;2023-05-10T12:02:48;100627.76;;;20.13;23.21
80248;BME280;69560;52.206;21.018;2023-05-10T12:05:15;100632.43;;;20.21;23.11
80248;BME280;69560;52.206;21.018;2023-05-10T12:07:42;100627.29;;;20.21;23.02
80248;BME280;69560;52.206;21.018;2023-05-10T12:10:11;100626.91;;;20.17;22.85
80248;BME280;69560;52.206;21.018;2023-05-10T12:12:46;100617.56;;;20.11;22.73
80248;BME280;69560;52.206;21.018;2023-05-10T12:15:23;100627.22;;;20.11;22.79
80248;BME280;69560;52.206;21.018;2023-05-10T12:17:50;100619.24;;;20.12;22.71
80248;BME280;69560;52.206;21.018;2023-05-10T12:20:19;100630.23;;;20.08;22.69
80248;BME280;69560;52.206;21.018;2023-05-10T12:25:19;100632.61;;;19.99;22.74
80248;BME280;69560;52.206;21.018;2023-05-10T12:27:57;100626.21;;;19.96;22.81
80248;BME280;69560;52.206;21.018;2023-05-10T12:30:28;100617.09;;;19.93;22.79
80248;BME280;69560;52.206;21.018;2023-05-10T12:33:01;100615.44;;;20.02;23.06
80248;BME280;69560;52.206;21.018;2023-05-10T12:35:31;100608.52;;;20.08;22.99
80248;BME280;69560;52.206;21.018;2023-05-10T12:37:58;100617.85;;;20.08;22.86
80248;BME280;69560;52.206;21.018;2023-05-10T12:40:25;100619.59;;;20.10;22.93
80248;BME280;69560;52.206;21.018;2023-05-10T12:42:51;100621.07;;;20.14;22.90
80248;BME280;69560;52.206;21.018;2023-05-10T12:45:18;100617.09;;;20.15;22.71
80248;BME280;69560;52.206;21.018;2023-05-10T12:47:45;100621.41;;;20.12;22.81
80248;BME280;69560;52.206;21.018;2023-05-10T12:50:12;100621.20;;;20.09;22.76
80248;BME280;69560;52.206;21.018;2023-05-10T12:52:38;100615.15;;;19.99;22.71
80248;BME280;69560;52.206;21.018;2023-05-10T12:55:05;100611.16;;;19.90;22.75
80248;BME280;69560;52.206;21.018;2023-05-10T12:57:32;100608.12;;;19.83;22.76
80248;BME280;69560;52.206;21.018;2023-05-10T12:59:59;100604.55;;;19.79;22.88
80248;BME280;69560;52.206;21.018;2023-05-10T13:02:26;100595.40;;;19.77;22.95
80248;BME280;69560;52.206;21.018;2023-05-10T13:04:52;100602.02;;;19.81;23.22
80248;BME280;69560;52.206;21.018;2023-05-10T13:07:19;100596.89;;;19.87;23.14
80248;BME280;69560;52.206;21.018;2023-05-10T13:09:46;100593.95;;;19.91;23.04
80248;BME280;69560;52.206;21.018;2023-05-10T13:12:12;100595.41;;;19.90;23.10
80248;BME280;69560;52.206;21.018;2023-05-10T13:14:39;100601.83;;;19.91;23.11
80248;BME280;69560;52.206;21.018;2023-05-10T13:17:07;100599.92;;;19.83;22.81
80248;BME280;69560;52.206;21.018;2023-05-10T13:19:33;100608.00;;;19.74;22.87